River & Lake Conditions

Stages:
  • Latest Observation

    Normal Stage: 11.54 ft3.5 m

    Flow: 158 kcfs
    Impacts: Above 8.7 to 9.2 feet, the Corps will raise the gates out of the water, allowing for open river conditions. This corresponds to a discharge of approximately 110,000 cfs.
  • Stages

Stage Date Flow
10.00 ft3.05 mForecast 09/23/2014 01:00 pm 134.000 kcfs
10.10 ft3.08 mForecast 09/23/2014 07:00 am 136.000 kcfs
10.10 ft3.08 mForecast 09/23/2014 01:00 am 136.000 kcfs
10.10 ft3.08 mForecast 09/22/2014 07:00 pm 136.000 kcfs
10.20 ft3.11 mForecast 09/22/2014 01:00 pm 137.000 kcfs
10.20 ft3.11 mForecast 09/22/2014 07:00 am 137.000 kcfs
10.20 ft3.11 mForecast 09/22/2014 01:00 am 137.000 kcfs
10.20 ft3.11 mForecast 09/21/2014 07:00 pm 137.000 kcfs
10.30 ft3.14 mForecast 09/21/2014 01:00 pm 139.000 kcfs
10.30 ft3.14 mForecast 09/21/2014 07:00 am 139.000 kcfs
10.30 ft3.14 mForecast 09/21/2014 01:00 am 139.000 kcfs
10.40 ft3.17 mForecast 09/20/2014 07:00 pm 140.000 kcfs
10.40 ft3.17 mForecast 09/20/2014 01:00 pm 140.000 kcfs
10.50 ft3.20 mForecast 09/20/2014 07:00 am 142.000 kcfs
10.50 ft3.20 mForecast 09/20/2014 01:00 am 142.000 kcfs
10.60 ft3.23 mForecast 09/19/2014 07:00 pm 143.000 kcfs
10.70 ft3.26 mForecast 09/19/2014 01:00 pm 145.000 kcfs
10.80 ft3.29 mForecast 09/19/2014 07:00 am 146.000 kcfs
10.90 ft3.32 mForecast 09/19/2014 01:00 am 148.000 kcfs
11.00 ft3.35 mForecast 09/18/2014 07:00 pm 149.000 kcfs
11.00 ft3.35 mForecast 09/18/2014 01:00 pm 149.000 kcfs
11.10 ft3.38 mForecast 09/18/2014 07:00 am 151.000 kcfs
11.10 ft3.38 mForecast 09/18/2014 01:00 am 151.000 kcfs
11.10 ft3.38 mForecast 09/17/2014 07:00 pm 151.000 kcfs
11.10 ft3.38 mForecast 09/17/2014 01:00 pm 151.000 kcfs
11.10 ft3.38 mForecast 09/17/2014 07:00 am 151.000 kcfs
11.20 ft3.41 mForecast 09/17/2014 01:00 am 152.000 kcfs
11.30 ft3.44 mForecast 09/16/2014 07:00 pm 154.000 kcfs
11.40 ft3.47 mForecast 09/16/2014 01:00 pm 155.000 kcfs
11.50 ft3.51 mForecast 09/16/2014 07:00 am 157.000 kcfs
11.50 ft3.51 mForecast 09/16/2014 01:00 am 157.000 kcfs
11.54 ft3.51 m 09/15/2014 10:00 pm 158.000 kcfs
11.55 ft3.51 m 09/15/2014 08:00 pm 158.000 kcfs
11.57 ft3.51 m 09/15/2014 06:00 pm 158.000 kcfs
11.59 ft3.51 m 09/15/2014 04:00 pm 158.000 kcfs
11.61 ft3.51 m 09/15/2014 02:00 pm 159.000 kcfs
11.62 ft3.51 m 09/15/2014 12:00 pm 159.000 kcfs
11.51 ft3.51 m 09/15/2014 10:00 am 157.000 kcfs
11.50 ft3.51 m 09/15/2014 08:00 am 157.000 kcfs
11.53 ft3.51 m 09/15/2014 06:00 am 157.000 kcfs
11.56 ft3.51 m 09/15/2014 04:00 am 158.000 kcfs
11.61 ft3.51 m 09/15/2014 02:00 am 159.000 kcfs
11.68 ft3.51 m 09/15/2014 12:00 am 160.000 kcfs
11.72 ft3.51 m 09/14/2014 10:00 pm 160.000 kcfs
11.74 ft3.51 m 09/14/2014 08:00 pm 161.000 kcfs
11.75 ft3.51 m 09/14/2014 06:00 pm 161.000 kcfs
11.77 ft3.51 m 09/14/2014 04:00 pm 161.000 kcfs
11.78 ft3.51 m 09/14/2014 02:00 pm 161.000 kcfs
11.82 ft3.51 m 09/14/2014 12:00 pm 162.000 kcfs
11.86 ft3.51 m 09/14/2014 10:00 am 162.000 kcfs
11.91 ft3.51 m 09/14/2014 08:00 am 163.000 kcfs
11.99 ft3.51 m 09/14/2014 06:00 am 164.000 kcfs
12.10 ft3.51 m 09/14/2014 04:00 am 166.000 kcfs
12.19 ft3.51 m 09/14/2014 02:00 am 167.000 kcfs
12.40 ft3.51 m 09/14/2014 12:00 am 171.000 kcfs
12.51 ft3.51 m 09/13/2014 10:00 pm 172.000 kcfs
12.65 ft3.51 m 09/13/2014 08:00 pm 174.000 kcfs
12.80 ft3.51 m 09/13/2014 06:00 pm 177.000 kcfs
12.95 ft3.51 m 09/13/2014 04:00 pm 179.000 kcfs
13.04 ft3.51 m 09/13/2014 02:00 pm 180.000 kcfs
13.14 ft3.51 m 09/13/2014 12:00 pm 182.000 kcfs
13.24 ft3.51 m 09/13/2014 10:00 am 183.000 kcfs